createdAt,value
2018-07-27T00:00:18.059Z,19.00
2018-07-27T00:02:46.779Z,19.13
2018-07-27T00:05:15.436Z,19.21
2018-07-27T00:07:44.355Z,18.87
2018-07-27T00:10:15.525Z,19.19
2018-07-27T00:12:44.176Z,19.18
2018-07-27T00:15:13.326Z,19.10
2018-07-27T00:17:42.270Z,18.86
2018-07-27T00:20:11.051Z,18.96
2018-07-27T00:22:40.153Z,18.84
2018-07-27T00:25:08.809Z,19.23
2018-07-27T00:27:37.516Z,19.31
2018-07-27T00:30:07.702Z,19.24
2018-07-27T00:32:36.683Z,19.35
2018-07-27T00:35:05.423Z,19.29
2018-07-27T00:37:34.105Z,19.16
2018-07-27T00:40:02.791Z,19.09
2018-07-27T00:42:31.446Z,19.16
2018-07-27T00:45:00.122Z,19.17
2018-07-27T00:47:28.754Z,19.20
2018-07-27T00:49:57.434Z,19.04
2018-07-27T00:52:26.068Z,18.92
2018-07-27T00:54:54.724Z,18.80
2018-07-27T00:57:23.665Z,18.65
2018-07-27T00:59:52.331Z,18.58
2018-07-27T01:02:21.038Z,18.72
2018-07-27T01:04:49.812Z,18.92
2018-07-27T01:07:18.974Z,18.98
2018-07-27T01:09:47.992Z,18.93
2018-07-27T01:12:16.663Z,19.00
2018-07-27T01:14:45.280Z,19.01
2018-07-27T01:17:14.565Z,18.85
2018-07-27T01:19:43.581Z,18.79
2018-07-27T01:22:12.274Z,18.73
2018-07-27T01:24:40.929Z,18.55
2018-07-27T01:27:09.616Z,18.48
2018-07-27T01:29:38.267Z,18.40
2018-07-27T01:32:07.213Z,18.33
2018-07-27T01:34:35.866Z,18.23
2018-07-27T01:37:04.834Z,18.22
2018-07-27T01:39:33.479Z,18.21
2018-07-27T01:42:02.188Z,18.17
2018-07-27T01:44:30.822Z,18.14
2018-07-27T01:46:59.815Z,18.08
2018-07-27T01:49:28.480Z,18.04
2018-07-27T01:51:57.139Z,18.03
2018-07-27T01:54:25.783Z,18.00
2018-07-27T01:56:54.426Z,17.97
2018-07-27T01:59:23.058Z,17.92
2018-07-27T02:01:51.770Z,17.93
2018-07-27T02:04:20.447Z,17.97
2018-07-27T02:06:49.193Z,18.01
2018-07-27T02:09:18.162Z,18.01
2018-07-27T02:11:47.151Z,18.02
2018-07-27T02:14:15.854Z,18.03
2018-07-27T02:16:44.818Z,18.04
2018-07-27T02:19:13.519Z,18.03
2018-07-27T02:21:42.482Z,18.03
2018-07-27T02:24:11.191Z,18.05
2018-07-27T02:26:39.914Z,18.02
2018-07-27T02:29:08.853Z,18.01
2018-07-27T02:31:37.524Z,18.14
2018-07-27T02:34:06.529Z,18.14
2018-07-27T02:36:35.465Z,18.07
2018-07-27T02:39:06.105Z,17.96
2018-07-27T02:41:34.762Z,17.96
2018-07-27T02:44:03.459Z,18.10
2018-07-27T02:46:32.165Z,18.06
2018-07-27T02:49:01.333Z,17.94
2018-07-27T02:51:30.069Z,18.06
2018-07-27T02:53:58.710Z,18.11
2018-07-27T02:56:27.381Z,18.08
2018-07-27T02:58:56.029Z,18.00
2018-07-27T03:01:24.839Z,17.98
2018-07-27T03:03:53.867Z,17.95
2018-07-27T03:06:22.588Z,17.92
2018-07-27T03:08:51.252Z,17.91
2018-07-27T03:11:20.060Z,17.99
2018-07-27T03:13:49.025Z,18.04
2018-07-27T03:16:18.001Z,18.05
2018-07-27T03:18:46.691Z,18.01
2018-07-27T03:21:15.401Z,17.86
2018-07-27T03:23:44.400Z,17.91
2018-07-27T03:26:13.371Z,17.94
2018-07-27T03:28:42.031Z,17.90
2018-07-27T03:31:10.693Z,17.93
2018-07-27T03:33:39.402Z,17.91
2018-07-27T03:36:08.067Z,18.03
2018-07-27T03:38:37.854Z,18.02
2018-07-27T03:41:06.558Z,17.98
2018-07-27T03:43:35.248Z,18.01
2018-07-27T03:46:04.010Z,18.10
2018-07-27T03:48:33.258Z,17.75
2018-07-27T03:51:01.962Z,18.26
2018-07-27T03:53:30.726Z,18.30
2018-07-27T03:55:59.423Z,18.30
2018-07-27T03:58:28.175Z,18.36
2018-07-27T04:00:56.831Z,18.46
2018-07-27T04:03:25.469Z,18.52
2018-07-27T04:05:54.426Z,18.51
2018-07-27T04:08:23.085Z,18.50
2018-07-27T04:10:51.703Z,18.45
2018-07-27T04:13:20.388Z,18.49
2018-07-27T04:15:49.764Z,18.55
2018-07-27T04:18:19.111Z,18.63
2018-07-27T04:20:48.052Z,18.76
2018-07-27T04:23:16.776Z,18.89
2018-07-27T04:25:45.414Z,18.96
2018-07-27T04:28:14.113Z,18.96
2018-07-27T04:30:42.830Z,18.91
2018-07-27T04:33:11.486Z,18.95
2018-07-27T04:35:40.174Z,19.07
2018-07-27T04:38:09.140Z,19.14
2018-07-27T04:40:37.810Z,19.19
2018-07-27T04:43:06.528Z,19.19
2018-07-27T04:45:35.202Z,19.19
2018-07-27T04:48:03.916Z,19.19
2018-07-27T04:50:32.973Z,19.18
2018-07-27T04:53:01.662Z,19.18
2018-07-27T04:55:30.682Z,19.15
2018-07-27T04:57:59.637Z,19.22
2018-07-27T05:00:28.310Z,19.49
2018-07-27T05:02:56.971Z,19.84
2018-07-27T05:05:25.672Z,19.80
2018-07-27T05:07:54.612Z,19.68
2018-07-27T05:10:27.455Z,19.63
2018-07-27T05:12:56.138Z,19.69
2018-07-27T05:15:25.175Z,19.79
2018-07-27T05:17:53.849Z,19.77
2018-07-27T05:20:22.859Z,19.81
2018-07-27T05:22:51.487Z,19.78
2018-07-27T05:25:20.195Z,19.96
2018-07-27T05:27:48.896Z,20.01
2018-07-27T05:30:17.743Z,20.09
2018-07-27T05:32:46.457Z,19.09
2018-07-27T05:35:15.179Z,20.03
2018-07-27T05:37:43.858Z,20.00
2018-07-27T05:40:12.588Z,20.05
2018-07-27T05:42:41.270Z,19.90
2018-07-27T05:45:10.020Z,19.90
2018-07-27T05:47:38.738Z,19.71
2018-07-27T05:50:07.677Z,19.92
2018-07-27T05:52:36.390Z,20.06
2018-07-27T05:55:05.507Z,20.12
2018-07-27T05:57:34.542Z,20.11
2018-07-27T06:00:04.549Z,20.05
2018-07-27T06:02:33.217Z,20.03
2018-07-27T06:05:02.028Z,20.21
2018-07-27T06:07:30.746Z,20.27
2018-07-27T06:09:59.453Z,20.27
2018-07-27T06:12:28.253Z,20.22
2018-07-27T06:14:57.003Z,20.30
2018-07-27T06:17:26.010Z,20.20
2018-07-27T06:19:55.020Z,20.03
2018-07-27T06:22:24.018Z,20.26
2018-07-27T06:24:54.054Z,20.55
2018-07-27T06:27:22.787Z,20.55
2018-07-27T06:29:51.657Z,20.64
2018-07-27T06:32:20.547Z,20.54
2018-07-27T06:34:49.219Z,20.74
2018-07-27T06:37:18.540Z,20.82
2018-07-27T06:39:47.310Z,20.92
2018-07-27T06:42:16.874Z,21.07
2018-07-27T06:44:46.047Z,21.21
2018-07-27T06:47:14.710Z,21.15
2018-07-27T06:49:43.701Z,21.07
2018-07-27T06:52:12.391Z,21.00
2018-07-27T06:54:41.076Z,21.07
2018-07-27T06:57:10.234Z,21.26
2018-07-27T06:59:38.911Z,21.25
2018-07-27T07:02:07.825Z,21.41
2018-07-27T07:04:36.526Z,21.33
2018-07-27T07:07:05.314Z,21.57
2018-07-27T07:09:34.035Z,21.73
2018-07-27T07:12:02.726Z,21.82
2018-07-27T07:14:31.713Z,21.78
2018-07-27T07:17:00.426Z,21.65
2018-07-27T07:19:29.437Z,21.54
2018-07-27T07:21:59.090Z,21.49
2018-07-27T07:24:27.734Z,21.63
2018-07-27T07:26:56.403Z,21.83
2018-07-27T07:29:25.403Z,22.17
2018-07-27T07:31:54.411Z,22.41
2018-07-27T07:34:23.366Z,22.51
2018-07-27T07:36:52.345Z,22.56
2018-07-27T07:39:21.263Z,22.68
2018-07-27T07:41:49.921Z,22.85
2018-07-27T07:44:18.607Z,22.67
2018-07-27T07:46:47.350Z,22.68
2018-07-27T07:49:16.467Z,22.83
2018-07-27T07:51:45.157Z,23.05
2018-07-27T07:54:13.842Z,23.03
2018-07-27T07:56:42.587Z,23.18
2018-07-27T07:59:11.416Z,23.45
2018-07-27T08:01:40.581Z,23.76
2018-07-27T08:04:09.280Z,24.14
2018-07-27T08:06:37.953Z,24.53
2018-07-27T08:09:08.764Z,24.64
2018-07-27T08:11:37.698Z,24.64
2018-07-27T08:14:06.634Z,24.54
2018-07-27T08:16:35.391Z,24.27
2018-07-27T08:19:04.133Z,24.94
2018-07-27T08:21:32.853Z,26.35
2018-07-27T08:24:02.821Z,27.48
2018-07-27T08:26:43.918Z,28.29
2018-07-27T08:29:13.722Z,28.91
2018-07-27T08:31:43.523Z,28.63
2018-07-27T08:34:13.131Z,29.00
2018-07-27T08:36:42.270Z,28.93
2018-07-27T08:39:13.339Z,29.24
2018-07-27T08:41:42.696Z,29.45
2018-07-27T08:44:12.935Z,28.95
2018-07-27T08:46:42.397Z,29.58
2018-07-27T08:49:11.644Z,29.82
2018-07-27T08:51:40.685Z,30.02
2018-07-27T08:54:10.210Z,30.21
2018-07-27T08:56:39.539Z,30.65
2018-07-27T08:59:08.953Z,30.63
2018-07-27T09:01:37.894Z,30.83
2018-07-27T09:04:07.590Z,31.10
2018-07-27T09:06:36.980Z,31.71
2018-07-27T09:09:14.500Z,31.79
2018-07-27T09:11:43.636Z,30.69
2018-07-27T09:14:13.095Z,30.23
2018-07-27T09:16:42.251Z,30.53
2018-07-27T09:19:11.225Z,30.87
2018-07-27T09:21:40.728Z,31.08
2018-07-27T09:24:09.802Z,30.22
2018-07-27T09:26:38.643Z,30.35
2018-07-27T09:29:07.565Z,30.74
2018-07-27T09:31:36.370Z,31.09
2018-07-27T09:34:05.789Z,30.83
2018-07-27T09:36:34.928Z,30.75
2018-07-27T09:39:04.844Z,31.06
2018-07-27T09:41:33.598Z,31.29
2018-07-27T09:44:02.373Z,31.09
2018-07-27T09:46:31.789Z,30.36
2018-07-27T09:49:01.698Z,29.83
2018-07-27T09:51:30.640Z,30.53
2018-07-27T09:53:59.520Z,30.37
2018-07-27T09:56:28.224Z,30.54
2018-07-27T09:58:57.209Z,31.25
2018-07-27T10:01:27.924Z,31.52
2018-07-27T10:03:58.228Z,31.49
2018-07-27T10:06:27.318Z,31.97
2018-07-27T10:08:56.171Z,30.80
2018-07-27T10:11:24.963Z,31.60
2018-07-27T10:13:53.969Z,31.42
2018-07-27T10:16:22.804Z,31.02
2018-07-27T10:18:52.176Z,31.73
2018-07-27T10:21:21.922Z,31.95
2018-07-27T10:23:50.756Z,32.00
2018-07-27T10:26:19.852Z,32.05
2018-07-27T10:28:48.933Z,31.85
2018-07-27T10:31:17.715Z,31.39
2018-07-27T10:33:46.445Z,31.63
2018-07-27T10:36:15.556Z,32.33
2018-07-27T10:38:44.533Z,32.40
2018-07-27T10:41:13.287Z,32.54
2018-07-27T10:43:42.693Z,32.83
2018-07-27T10:46:11.390Z,32.56
2018-07-27T10:48:41.209Z,32.65
2018-07-27T10:51:10.564Z,32.80
2018-07-27T10:53:39.313Z,33.25
2018-07-27T10:56:08.121Z,33.26
2018-07-27T10:58:37.444Z,33.00
2018-07-27T11:01:06.306Z,32.65
2018-07-27T11:03:34.993Z,31.31
2018-07-27T11:06:04.121Z,31.95
2018-07-27T11:08:32.952Z,33.12
2018-07-27T11:11:02.153Z,33.41
2018-07-27T11:13:31.024Z,33.49
2018-07-27T11:15:59.773Z,33.22
2018-07-27T11:18:28.849Z,33.57
2018-07-27T11:20:57.995Z,33.84
2018-07-27T11:23:28.014Z,34.10
2018-07-27T11:25:56.788Z,34.51
2018-07-27T11:28:25.472Z,34.92
2018-07-27T11:30:54.854Z,35.76
2018-07-27T11:33:24.124Z,35.53
2018-07-27T11:35:53.084Z,35.54
2018-07-27T11:38:21.964Z,34.93
2018-07-27T11:40:50.655Z,32.99
2018-07-27T11:43:19.462Z,30.75
2018-07-27T11:45:48.253Z,29.81
2018-07-27T11:48:17.333Z,29.41
2018-07-27T11:50:46.168Z,30.25
2018-07-27T11:53:15.051Z,32.15
2018-07-27T11:55:44.431Z,33.38
2018-07-27T11:58:13.900Z,31.18
2018-07-27T12:00:42.720Z,30.18
2018-07-27T12:03:11.519Z,29.75
2018-07-27T12:05:40.340Z,29.43
2018-07-27T12:08:09.172Z,28.96
2018-07-27T12:10:38.310Z,29.25
2018-07-27T12:13:07.336Z,30.72
2018-07-27T12:15:36.420Z,31.69
2018-07-27T12:18:05.257Z,32.56
2018-07-27T12:20:34.027Z,31.19
2018-07-27T12:23:02.809Z,30.18
2018-07-27T12:25:32.033Z,30.82
2018-07-27T12:28:00.759Z,31.72
2018-07-27T12:30:30.077Z,31.99
2018-07-27T12:32:58.816Z,32.28
2018-07-27T12:35:27.657Z,31.36
2018-07-27T12:37:56.822Z,30.75
2018-07-27T12:40:25.554Z,30.56
2018-07-27T12:42:54.365Z,30.39
2018-07-27T12:45:23.096Z,30.30
2018-07-27T12:47:51.922Z,29.67
2018-07-27T12:50:20.778Z,29.23
2018-07-27T12:52:49.488Z,28.67
2018-07-27T12:55:18.311Z,27.76
2018-07-27T12:57:46.983Z,27.72
2018-07-27T13:00:15.630Z,27.63
2018-07-27T13:02:44.320Z,27.32
2018-07-27T13:05:12.991Z,26.52
2018-07-27T13:07:42.177Z,27.58
2018-07-27T13:10:11.212Z,27.61
2018-07-27T13:12:39.977Z,27.38
2018-07-27T13:15:09.514Z,27.32
2018-07-27T13:17:38.436Z,27.46
2018-07-27T13:20:07.639Z,27.82
2018-07-27T13:22:37.084Z,28.17
2018-07-27T13:25:05.829Z,28.53
2018-07-27T13:27:34.509Z,28.86
2018-07-27T13:30:04.734Z,28.81
2018-07-27T13:32:33.645Z,29.08
2018-07-27T13:35:02.421Z,28.95
2018-07-27T13:37:32.862Z,28.32
2018-07-27T13:40:03.073Z,28.08
2018-07-27T13:42:33.252Z,27.90
2018-07-27T13:45:02.237Z,27.73
2018-07-27T13:47:30.952Z,27.54
2018-07-27T13:49:59.633Z,27.30
2018-07-27T13:52:28.377Z,27.27
2018-07-27T13:54:57.075Z,27.11
2018-07-27T13:57:26.044Z,26.87
2018-07-27T13:59:54.717Z,26.87
2018-07-27T14:02:23.432Z,26.94
2018-07-27T14:04:52.125Z,26.94
2018-07-27T14:07:20.830Z,26.70
2018-07-27T14:09:49.551Z,26.79
2018-07-27T14:12:18.280Z,26.72
2018-07-27T14:14:46.964Z,26.66
2018-07-27T14:17:15.646Z,26.71
2018-07-27T14:19:44.294Z,26.77
2018-07-27T14:22:12.991Z,26.72
2018-07-27T14:24:41.989Z,26.57
2018-07-27T14:27:10.950Z,26.53
2018-07-27T14:29:39.623Z,26.16
2018-07-27T14:32:08.313Z,25.96
2018-07-27T14:34:37.002Z,25.79
2018-07-27T14:37:06.059Z,25.74
2018-07-27T14:39:34.797Z,25.79
2018-07-27T14:42:03.475Z,25.90
2018-07-27T14:44:32.304Z,25.95
2018-07-27T14:47:00.954Z,25.89
2018-07-27T14:49:29.711Z,25.24
2018-07-27T14:51:58.470Z,24.90
2018-07-27T14:54:27.230Z,24.57
2018-07-27T14:56:55.938Z,24.46
2018-07-27T14:59:24.707Z,24.32
2018-07-27T15:01:53.425Z,24.34
2018-07-27T15:04:22.142Z,24.33
2018-07-27T15:06:50.855Z,24.29
2018-07-27T15:09:19.513Z,24.33
2018-07-27T15:11:48.194Z,24.39
2018-07-27T15:14:16.871Z,24.47
2018-07-27T15:16:45.859Z,24.54
2018-07-27T15:19:15.440Z,24.66
2018-07-27T15:21:45.218Z,24.71
2018-07-27T15:24:14.788Z,24.65
2018-07-27T15:26:43.786Z,24.67
2018-07-27T15:29:12.773Z,24.62
2018-07-27T15:31:43.065Z,24.61
2018-07-27T15:34:12.383Z,24.69
2018-07-27T15:36:41.711Z,24.85
2018-07-27T15:39:11.147Z,25.06
2018-07-27T15:41:40.011Z,25.11
2018-07-27T15:44:08.983Z,25.17
2018-07-27T15:46:39.142Z,25.15
2018-07-27T15:49:08.335Z,25.21
2018-07-27T15:51:38.234Z,25.25
2018-07-27T15:54:07.391Z,25.29
2018-07-27T15:56:36.523Z,25.33
2018-07-27T15:59:05.890Z,25.34
2018-07-27T16:01:35.782Z,25.54
2018-07-27T16:04:05.746Z,25.68
2018-07-27T16:06:34.657Z,25.65
2018-07-27T16:09:03.591Z,25.64
2018-07-27T16:11:32.415Z,25.77
2018-07-27T16:14:01.309Z,25.79
2018-07-27T16:16:30.058Z,25.79
2018-07-27T16:18:58.958Z,25.90
2018-07-27T16:21:27.650Z,25.95
2018-07-27T16:23:56.650Z,25.83
2018-07-27T16:26:26.114Z,25.82
2018-07-27T16:28:54.947Z,25.76
2018-07-27T16:31:24.186Z,25.76
2018-07-27T16:33:53.043Z,25.79
2018-07-27T16:36:22.138Z,25.73
2018-07-27T16:38:50.930Z,25.77
2018-07-27T16:41:19.794Z,25.77
2018-07-27T16:43:48.798Z,25.75
2018-07-27T16:46:17.810Z,25.72
2018-07-27T16:48:46.614Z,25.71
2018-07-27T16:51:15.546Z,25.64
2018-07-27T16:53:44.270Z,25.62
2018-07-27T16:56:13.483Z,25.61
2018-07-27T16:58:42.119Z,25.59
2018-07-27T17:01:10.878Z,25.51
2018-07-27T17:03:39.591Z,25.49
2018-07-27T17:06:08.324Z,25.48
2018-07-27T17:08:36.978Z,25.44
2018-07-27T17:11:05.674Z,25.46
2018-07-27T17:13:34.388Z,25.44
2018-07-27T17:16:03.483Z,25.38
2018-07-27T17:18:32.744Z,25.40
2018-07-27T17:21:01.621Z,25.44
2018-07-27T17:23:30.599Z,25.47
2018-07-27T17:25:59.371Z,25.51
2018-07-27T17:28:28.160Z,25.46
2018-07-27T17:30:56.899Z,25.31
2018-07-27T17:33:25.882Z,25.17
2018-07-27T17:35:54.886Z,24.97
2018-07-27T17:38:23.656Z,24.83
2018-07-27T17:40:53.185Z,24.71
2018-07-27T17:43:22.425Z,24.68
2018-07-27T17:45:51.178Z,24.57
2018-07-27T17:48:19.904Z,24.33
2018-07-27T17:50:48.976Z,24.06
2018-07-27T17:53:17.639Z,23.86
2018-07-27T17:55:46.390Z,23.77
2018-07-27T17:58:16.202Z,23.58
2018-07-27T18:00:45.010Z,23.51
2018-07-27T18:03:13.713Z,23.44
2018-07-27T18:05:42.371Z,23.45
2018-07-27T18:08:11.110Z,23.42
2018-07-27T18:10:39.750Z,23.38
2018-07-27T18:13:08.735Z,23.34
2018-07-27T18:15:38.663Z,23.33
2018-07-27T18:18:07.725Z,23.32
2018-07-27T18:20:36.400Z,23.31
2018-07-27T18:23:05.297Z,23.29
2018-07-27T18:25:34.004Z,23.22
2018-07-27T18:28:03.118Z,23.17
2018-07-27T18:30:31.825Z,23.14
2018-07-27T18:33:00.517Z,23.17
2018-07-27T18:35:29.182Z,23.13
2018-07-27T18:37:57.862Z,23.10
2018-07-27T18:40:26.778Z,23.09
2018-07-27T18:42:55.739Z,23.09
2018-07-27T18:45:24.390Z,23.06
2018-07-27T18:47:53.106Z,23.00
2018-07-27T18:50:21.789Z,23.01
2018-07-27T18:52:50.589Z,22.97
2018-07-27T18:55:19.238Z,22.90
2018-07-27T18:57:47.903Z,22.89
2018-07-27T19:00:16.660Z,22.92
2018-07-27T19:02:45.315Z,22.91
2018-07-27T19:05:14.003Z,22.92
2018-07-27T19:07:42.693Z,22.96
2018-07-27T19:10:11.316Z,22.98
2018-07-27T19:12:39.976Z,22.91
2018-07-27T19:15:09.562Z,22.94
2018-07-27T19:17:38.779Z,22.89
2018-07-27T19:20:07.496Z,22.80
2018-07-27T19:22:36.174Z,22.77
2018-07-27T19:25:04.874Z,22.76
2018-07-27T19:27:33.598Z,22.75
2018-07-27T19:30:02.383Z,22.79
2018-07-27T19:32:31.074Z,22.82
2018-07-27T19:35:00.005Z,22.75
2018-07-27T19:37:28.662Z,22.73
2018-07-27T19:39:57.738Z,22.73
2018-07-27T19:42:27.750Z,22.78
2018-07-27T19:44:57.247Z,22.68
2018-07-27T19:47:26.058Z,22.67
2018-07-27T19:49:54.830Z,22.63
2018-07-27T19:52:23.493Z,22.53
2018-07-27T19:54:52.180Z,22.45
2018-07-27T19:57:20.863Z,22.34
2018-07-27T19:59:49.570Z,22.31
2018-07-27T20:02:18.230Z,22.29
2018-07-27T20:04:46.905Z,22.25
2018-07-27T20:07:15.583Z,22.21
2018-07-27T20:09:44.232Z,22.21
2018-07-27T20:12:12.912Z,22.23
2018-07-27T20:14:41.583Z,22.23
2018-07-27T20:17:10.319Z,22.21
2018-07-27T20:19:39.053Z,22.22
2018-07-27T20:22:07.716Z,22.22
2018-07-27T20:24:36.391Z,22.19
2018-07-27T20:27:05.275Z,22.16
2018-07-27T20:29:33.939Z,22.16
2018-07-27T20:32:02.647Z,22.17
2018-07-27T20:34:31.325Z,20.03
2018-07-27T20:37:00.414Z,22.18
2018-07-27T20:39:29.443Z,22.16
2018-07-27T20:41:58.279Z,22.15
2018-07-27T20:44:27.899Z,22.13
2018-07-27T20:46:56.815Z,22.02
2018-07-27T20:49:25.799Z,21.95
2018-07-27T20:51:54.796Z,21.84
2018-07-27T20:54:23.947Z,21.83
2018-07-27T20:56:52.703Z,21.81
2018-07-27T20:59:21.727Z,21.79
2018-07-27T21:01:50.830Z,21.72
2018-07-27T21:04:19.839Z,21.64
2018-07-27T21:06:49.222Z,21.68
2018-07-27T21:09:17.987Z,21.78
2018-07-27T21:11:46.982Z,21.82
2018-07-27T21:14:15.792Z,21.84
2018-07-27T21:16:44.661Z,21.88
2018-07-27T21:19:13.338Z,21.83
2018-07-27T21:21:42.399Z,21.89
2018-07-27T21:24:11.140Z,21.95
2018-07-27T21:26:39.799Z,21.96
2018-07-27T21:29:08.523Z,21.94
2018-07-27T21:31:37.191Z,21.98
2018-07-27T21:34:05.966Z,22.00
2018-07-27T21:36:35.116Z,22.00
2018-07-27T21:39:04.753Z,21.98
2018-07-27T21:41:33.531Z,21.97
2018-07-27T21:44:02.327Z,21.98
2018-07-27T21:46:31.521Z,21.99
2018-07-27T21:49:00.302Z,22.02
2018-07-27T21:51:29.488Z,22.03
2018-07-27T21:53:58.298Z,22.03
2018-07-27T21:56:27.585Z,22.03
2018-07-27T21:58:56.779Z,22.02
2018-07-27T22:01:26.577Z,22.01
2018-07-27T22:03:55.621Z,21.86
2018-07-27T22:06:24.565Z,21.51
2018-07-27T22:08:53.738Z,21.34
2018-07-27T22:11:22.845Z,21.24
2018-07-27T22:13:51.815Z,21.12
2018-07-27T22:16:20.549Z,20.87
2018-07-27T22:18:49.749Z,20.77
2018-07-27T22:21:18.836Z,20.72
2018-07-27T22:23:48.096Z,20.65
2018-07-27T22:26:17.320Z,20.59
2018-07-27T22:28:46.050Z,20.55
2018-07-27T22:31:15.374Z,20.55
2018-07-27T22:33:44.005Z,20.50
2018-07-27T22:36:12.700Z,20.47
2018-07-27T22:38:41.307Z,20.41
2018-07-27T22:41:10.448Z,20.34
2018-07-27T22:43:39.350Z,20.24
2018-07-27T22:46:08.070Z,20.14
2018-07-27T22:48:36.886Z,20.05
2018-07-27T22:51:06.062Z,20.07
2018-07-27T22:53:35.175Z,20.02
2018-07-27T22:56:04.175Z,19.92
2018-07-27T22:58:33.573Z,19.94
2018-07-27T23:01:02.303Z,19.93
2018-07-27T23:03:30.919Z,19.91
2018-07-27T23:05:59.629Z,19.87
2018-07-27T23:08:28.751Z,19.90
2018-07-27T23:10:57.771Z,19.91
2018-07-27T23:13:26.529Z,19.91
2018-07-27T23:15:55.201Z,19.91
2018-07-27T23:18:24.480Z,19.90
2018-07-27T23:20:53.521Z,19.87
2018-07-27T23:23:22.269Z,19.89
2018-07-27T23:25:50.850Z,19.95
2018-07-27T23:28:19.617Z,19.97
2018-07-27T23:30:48.339Z,19.96
2018-07-27T23:33:17.281Z,19.92
2018-07-27T23:35:46.122Z,19.88
2018-07-27T23:38:14.789Z,19.89
2018-07-27T23:40:43.627Z,19.85
2018-07-27T23:43:12.315Z,19.83
2018-07-27T23:45:41.273Z,19.81
2018-07-27T23:48:10.021Z,19.85
2018-07-27T23:50:39.036Z,19.91
2018-07-27T23:53:07.850Z,19.90
2018-07-27T23:55:36.748Z,19.82
2018-07-27T23:58:05.745Z,19.77
